CYHS weather

Hanover / Saugeen Municipal Airport
Hanover, Ontario, Canada

Public forecast

Using degrees Celsius for public forecast. Weather courtesy of forecast.io.

Closest aviation weather report (METAR) to Hanover / Saugeen Municipal Airport

Closest report is Wiarton Airport, 35.3 nm (65.4 km) N. Retrieved 2019/12/14 04:00 UTC (39 minutes ago):

CYVV 140400Z 18004KT 15SM SCT080 01/M03 A2984 RMK AC3 SLP116

Closest aviation forecast (TAF) to Hanover / Saugeen Municipal Airport

Forecast is more than 6 hours old.

Closest forecast is Wiarton Airport, 35.3 nm (65.4 km) N. Retrieved 2019/12/13 20:00 UTC (9 hours ago):

TAF CYVV 131938Z 1320/1324 18012KT P6SM SCT050 BKN080 OVC250 RMK NXT FCST WILL BE ISSUED AT 141145Z